KCKV

Outlaw Field Airport

Clarksville, Tennessee, USA
METAR KCKV 232252Z AUTO 26006KT 10SM OVC036 04/M02 A3014 RMK AO2 SLP209 T00441017
Observed Flight Rules
Jan-23 @ 22:52 UTC (20 minutes ago) Visual Flight Rules
Wind Visibility Clouds
260° at 6 knots 10 miles
  • Overcast at 3,600' AGL
Temperatures Readings
Current 4°C / 39°F
Dewpoint -2°C / 28°F
Humidity 65%
Altimeter 30.14" Hg
Pressure 1020.9 hPa
Elevation 165
METAR KCKV 232252Z AUTO 26006KT 10SM OVC036 04/M02 A3014 RMK AO2 SLP209 T00441017
Observed Flight Rules
Jan-23 @ 22:52 UTC
(20 minutes ago)
VFR
Wind Visibility
260° at 6 knots 10 miles
Clouds
  • Overcast at 3,600' AGL
Temperature Dewpoint
4°C / 39°F -2°C / 28°F
Humidity Altimeter Pressure
65% 30.14" Hg 1020.9 hPa